Airport Name : Wake Island Afld

Other Name : Wake Island Afld

ICAO : PWAK

IATA : AWK

FAA : AWK

Latitude : 19.282067

Longitude : 166.636444

Country : U.S. Minor Outlying Islands

Local Date and Time : 03 Dec 2020 22:34

 

TAF (Terminal Aerodrome Forecast)

TAF PWAK 030600Z 0306/0412 07020KT 9999 FEW026 QNH2996INS BECMG 0407/0408 10015KT 9999 SCT040 QNH3001INS TX31/0406Z TN27/0316Z LIMITED METWATCH 0306 TIL 0314 FOR MIL USE ONLY

 

METAR (METeorological Aerodrome Report)

To Charter a Jet Click here.